Weather at Fort Lewis Auxiliary Airfield Number 1 [CLOSED]

Public forecast

Using degrees Fahrenheit for public forecast. Weather courtesy of forecast.io.

Closest aviation weather report (METAR) to Fort Lewis Auxiliary Airfield Number 1

Closest report is McChord Air Force Base, 3.5 nm (6.5 km) N.

2024/07/22 10:15 (retrieved 42 minutes ago)

KTCM 221015Z AUTO 22003KT 10SM OVC029 15/11 A3010 RMK AO2 SLP195

Closest aviation forecast (TAF) to Fort Lewis Auxiliary Airfield Number 1

Closest forecast is Gray Army Air Field, 4.5 nm (8.3 km) W.

2024/07/22 07:59 (retrieved 3 hours ago)

TAF KGRF 220700Z 2207/2313 16006KT 9999 SKC QNH3008INS BECMG 2210/2211 16006KT 9999 BKN010 OVC015 QNH3007INS BECMG 2218/2219 17005KT 9999 BKN020 OVC030 QNH3012INS BECMG 2222/2223 20005KT 9999 SCT040 QNH3010INS TX22/2300Z TN14/2213Z